WetterOnline ( https://www.wetteronline.at )

Wetter aktuell Schenefeld

Aktuelles Wetter: Quickborn (17m)

6-stündlich | Neueste Meldungen
Ortszeit Temperatur Wetter
So, 25.08. 8:00 17.0° C leicht bewölkt
So, 25.08. 2:00 17.9° C wolkenlos
Sa, 24.08. 20:00 22.7° C wolkenlos
Sa, 24.08. 14:00 26.9° C wolkenlos
Sa, 24.08. 8:00 15.1° C wolkenlos
Sa, 24.08. 2:00 11.3° C wolkig
Fr, 23.08. 20:00 21.4° C leicht bewölkt
Fr, 23.08. 14:00 23.8° C leicht bewölkt
Ortszeit Temperatur Wetter
So, 25.08. 11:00 24.2° C leicht bewölkt
So, 25.08. 10:50 24.2° C leicht bewölkt
So, 25.08. 10:40 24.0° C fast wolkenlos
So, 25.08. 10:30 22.8° C wolkenlos
So, 25.08. 10:20 22.8° C wolkenlos
So, 25.08. 10:10 22.9° C wolkenlos
So, 25.08. 10:00 22.0° C wolkenlos
So, 25.08. 9:30 20.8° C leicht bewölkt
So, 25.08. 9:00 19.2° C leicht bewölkt
So, 25.08. 8:30 18.2° C wolkig
So, 25.08. 8:00 17.0° C leicht bewölkt
Ortszeit Relative Feuchte Sichtweite
So, 25.08. 8:00 79% 30 km
So, 25.08. 2:00 81% 35 km
Sa, 24.08. 20:00 58% 50 km
Sa, 24.08. 14:00 43% 40 km
Sa, 24.08. 8:00 87% 22 km
Sa, 24.08. 2:00 99% 1.8 km
Fr, 23.08. 20:00 62% 50 km
Fr, 23.08. 14:00 45% 45 km
Ortszeit Relative Feuchte Sichtweite
So, 25.08. 11:00 59% 50 km
So, 25.08. 10:50 59% -
So, 25.08. 10:40 59% -
So, 25.08. 10:30 61% 40 km
So, 25.08. 10:20 61% -
So, 25.08. 10:10 62% -
So, 25.08. 10:00 62% 40 km
So, 25.08. 9:30 66% 55 km
So, 25.08. 9:00 70% 35 km
So, 25.08. 8:30 76% 45 km
So, 25.08. 8:00 79% 30 km
Ortszeit Niederschlagsmenge Niederschlagsart
So, 25.08. 8:00 0.0 l/m2 in 12 Std. -
So, 25.08. 2:00 0.0 l/m2 in 6 Std. -
Sa, 24.08. 20:00 0.0 l/m2 in 12 Std. -
Sa, 24.08. 14:00 0.0 l/m2 in 6 Std. -
Sa, 24.08. 8:00 0.0 l/m2 in 12 Std. -
Sa, 24.08. 2:00 0.0 l/m2 in 6 Std. -
Fr, 23.08. 20:00 0.0 l/m2 in 12 Std. -
Fr, 23.08. 14:00 0.0 l/m2 in 6 Std. -
Ortszeit Niederschlagsmenge Niederschlagsart
So, 25.08. 11:00 0.0 l/m2 in 1 Std. -
So, 25.08. 10:50 keine Meldung -
So, 25.08. 10:40 keine Meldung -
So, 25.08. 10:30 0.0 l/m2 in 1 Std. -
So, 25.08. 10:20 keine Meldung -
So, 25.08. 10:10 keine Meldung -
So, 25.08. 10:00 0.0 l/m2 in 1 Std. -
So, 25.08. 9:30 0.0 l/m2 in 1 Std. -
So, 25.08. 9:00 0.0 l/m2 in 1 Std. -
So, 25.08. 8:30 0.0 l/m2 in 1 Std. -
So, 25.08. 8:00 0.0 l/m2 in 1 Std. -
Ortszeit Stärke Spitze Richtung
km/h Bft. km/h Grad Sektor
So, 25.08. 8:00 4 1 18 60° NO
So, 25.08. 2:00 9 2 26 80° O
Sa, 24.08. 20:00 14 3 29 70° O
Sa, 24.08. 14:00 7 2 22 90° O
Sa, 24.08. 8:00 6 1 11 70° O
Sa, 24.08. 2:00 4 1 11 360° N
Fr, 23.08. 20:00 7 2 22 330° NW
Fr, 23.08. 14:00 11 2 24 240° SW
Ortszeit Stärke Spitze Richtung
km/h Bft. km/h Grad Sektor
So, 25.08. 11:00 7 2 14 80° O
So, 25.08. 10:50 7 2 - 80° O
So, 25.08. 10:40 7 2 - 60° NO
So, 25.08. 10:30 7 2 14 70° O
So, 25.08. 10:20 7 2 - 70° O
So, 25.08. 10:10 7 2 - 80° O
So, 25.08. 10:00 7 2 11 70° O
So, 25.08. 9:30 6 1 11 60° NO
So, 25.08. 9:00 6 1 11 90° O
So, 25.08. 8:30 4 1 7 70° O
So, 25.08. 8:00 4 1 7 60° NO
Ortszeit Untergrenze Bedeckung Gattung
total tief tief mittel hoch
So, 25.08. 8:00 1800 m 4/8 4/8 - - -
So, 25.08. 2:00 - 0/8 0/8 - - -
Sa, 24.08. 20:00 - 0/8 0/8 - - -
Sa, 24.08. 14:00 - 0/8 0/8 - - -
Sa, 24.08. 8:00 - 0/8 0/8 - - -
Sa, 24.08. 2:00 9000 m 8/8 0/8 - - -
Fr, 23.08. 20:00 8700 m 8/8 0/8 - - -
Fr, 23.08. 14:00 8100 m 8/8 0/8 - - -
Ortszeit Bedeckungsgrad in Achtel und Wolkenuntergrenze
So, 25.08. 11:00 2(1500m)
So, 25.08. 10:50 2(1500m)
So, 25.08. 10:40 1(1500m)
So, 25.08. 10:30 1(1800m)
So, 25.08. 10:20 keine Wolken
So, 25.08. 10:10 keine Wolken
So, 25.08. 10:00 keine Wolken
So, 25.08. 9:30 3(1800m)
So, 25.08. 9:00 4(1800m)
So, 25.08. 8:30 6(1800m)
So, 25.08. 8:00 4(1800m)
Ortszeit Luftdruck NN (hPa) Tendenz (hPa in 3 Std.)
So, 25.08. 8:00 1022 - 0,2
So, 25.08. 2:00 1022 - 0,2
Sa, 24.08. 20:00 1022 - 0,7
Sa, 24.08. 14:00 1024 - 1,3
Sa, 24.08. 8:00 1025 - 0,4
Sa, 24.08. 2:00 1026 - 0,1
Fr, 23.08. 20:00 1025 - 0,5
Fr, 23.08. 14:00 1026 - 0,4
Ortszeit Luftdruck NN (hPa) Tendenz (hPa in 3 Std.)
So, 25.08. 11:00 1022 + 0,1
So, 25.08. 10:50 1022 keine Meldung
So, 25.08. 10:40 1022 keine Meldung
So, 25.08. 10:30 1022 + 0,2
So, 25.08. 10:20 1022 keine Meldung
So, 25.08. 10:10 1022 keine Meldung
So, 25.08. 10:00 1022 + 0,2
So, 25.08. 9:30 1022 + 0,2
So, 25.08. 9:00 1022 + 0,3
So, 25.08. 8:30 1022 0,0
So, 25.08. 8:00 1022 - 0,2
Ortszeit Schneehöhe (cm)
So, 25.08. 8:00 -
So, 25.08. 2:00 -
Sa, 24.08. 20:00 -
Sa, 24.08. 14:00 -
Sa, 24.08. 8:00 -
Sa, 24.08. 2:00 -
Fr, 23.08. 20:00 -
Fr, 23.08. 14:00 -
Ortszeit Schneehöhe (cm)
So, 25.08. 11:00 -
So, 25.08. 10:50 -
So, 25.08. 10:40 -
So, 25.08. 10:30 -
So, 25.08. 10:20 -
So, 25.08. 10:10 -
So, 25.08. 10:00 -
So, 25.08. 9:30 -
So, 25.08. 9:00 -
So, 25.08. 8:30 -
So, 25.08. 8:00 -
Link zu dieser Seite / Seite empfehlen

Das Wetter in ...